Overview Statistics Trail Chart Weather Telemetry Raw packets
 

This is the latest recevied weather packets stored in our database for station/object ENBN. If no packets are shown the sender has not sent any weather packets the latest 10 day(s).

<< 13 14 15 16 17 18 19 >>
Time Temp. Humidity Pressure Rain* Wind** Luminosity Snow
1787976187 16.67° C 63% 1006 hPa - - - -
1787974386 15.56° C 72% 1006 hPa - - - -
1787972586 15.56° C 72% 1006 hPa - - - -
1787970786 15.56° C 77% 1007 hPa - - - -
1787968987 15.56° C 72% 1007 hPa - - - -
1787967186 15.56° C 72% 1008 hPa - - - -
1787963586 16.67° C 67% 1008 hPa - - - -
1787961786 16.67° C 67% 1008 hPa - - - -
1787959986 16.67° C 67% 1009 hPa - - - -
1787958186 17.78° C 63% 1009 hPa - - - -
1787956386 17.78° C 63% 1009 hPa - - - -
1787954586 17.78° C 67% 1010 hPa - - - -
1787952786 17.78° C 63% 1010 hPa - - - -
1787950986 17.78° C 63% 1010 hPa - - - -
1787949186 17.78° C 63% 1010 hPa - - - -
1787947402 18.89° C 59% 1011 hPa - - - -
1787945602 18.89° C 59% 1011 hPa - - - -
1787943785 18.89° C 59% 1011 hPa - - - -
1787941987 18.89° C 59% 1011 hPa - - - -
1787940187 20° C 56% 1011 hPa - - - -
1787938388 20.56° C 52% 1011 hPa - - - -
1787936588 20.56° C 52% 1011 hPa - - - -
1787934788 21.67° C 46% 1011 hPa - - - -
1787932989 22.78° C 46% 1012 hPa - - - -
1787931188 21.67° C 49% 1012 hPa - - - -

* Rain since midnight (hover to see other rain measurements)
** Current wind speed in m/s (hover to see current wind gust speed)